Time;durP1;ratioP1;P1;durP2;ratioP2;P2;SDS_P1;SDS_P2;PMS_P1;PMS_P2;Temp;Humidity;BMP_temperature;BMP_pressure;BME280_temperature;BME280_humidity;BME280_pressure;Samples;Min_cycle;Max_cycle;Signal;HPM_P1;HPM_P2
2023/03/25 00:01:12;;;;;;;1.95;0.90;;;7.30;99.90;;;;;;5049369;28;20402;-87
2023/03/25 00:03:49;;;;;;;1.42;1.13;;;7.30;99.90;;;;;;5049192;28;20056;-85
2023/03/25 00:06:17;;;;;;;1.85;1.75;;;7.40;99.90;;;;;;5048506;28;20067;-86
2023/03/25 00:08:46;;;;;;;1.05;1.00;;;7.50;99.90;;;;;;5048663;28;20075;-86
2023/03/25 00:11:14;;;;;;;1.70;1.60;;;7.40;99.90;;;;;;5064248;28;20053;-85
2023/03/25 00:13:43;;;;;;;1.23;1.13;;;7.40;99.90;;;;;;5047374;28;20056;-87
2023/03/25 00:16:10;;;;;;;1.55;1.45;;;7.30;99.90;;;;;;5032020;28;20044;-87
2023/03/25 00:18:38;;;;;;;1.30;1.20;;;7.40;99.90;;;;;;5049949;28;20045;-86
2023/03/25 00:21:09;;;;;;;1.23;1.13;;;7.40;99.90;;;;;;5050266;28;20513;-85
2023/03/25 00:23:39;;;;;;;1.40;1.30;;;7.40;99.90;;;;;;5051375;28;20033;-85
2023/03/25 00:26:07;;;;;;;1.67;0.98;;;7.40;99.90;;;;;;5049290;28;20037;-85
2023/03/25 00:28:37;;;;;;;1.23;1.13;;;7.40;99.90;;;;;;5049221;28;20052;-86
2023/03/25 00:31:11;;;;;;;1.13;1.08;;;7.40;99.90;;;;;;5030866;28;20049;-86
2023/03/25 00:34:19;;;;;;;0.90;0.90;;;7.40;99.90;;;;;;5049532;28;20045;-86
2023/03/25 00:36:46;;;;;;;0.95;0.95;;;7.40;99.90;;;;;;5049020;28;20064;-86
2023/03/25 00:39:14;;;;;;;1.55;1.45;;;7.40;99.90;;;;;;5033456;28;20045;-85
2023/03/25 00:41:42;;;;;;;1.50;1.40;;;7.20;99.90;;;;;;5027908;28;21073;-87
2023/03/25 00:44:16;;;;;;;2.22;1.15;;;7.20;99.90;;;;;;5032562;28;20057;-85
2023/03/25 00:46:43;;;;;;;1.15;1.15;;;7.20;99.90;;;;;;5017063;28;20492;-85
2023/03/25 00:49:12;;;;;;;0.93;0.93;;;7.20;99.90;;;;;;5051771;28;20045;-86
2023/03/25 00:51:40;;;;;;;2.42;1.15;;;7.10;99.90;;;;;;5048962;28;20053;-86
2023/03/25 00:54:21;;;;;;;1.23;0.85;;;6.90;99.90;;;;;;5031451;28;20045;-87
2023/03/25 00:56:50;;;;;;;2.08;1.45;;;6.90;99.90;;;;;;5045390;28;20051;-86
2023/03/25 00:59:18;;;;;;;1.33;1.15;;;6.90;99.90;;;;;;5047949;28;20045;-85
2023/03/25 01:01:46;;;;;;;1.13;1.08;;;6.90;99.90;;;;;;5032068;28;20056;-86
2023/03/25 01:04:18;;;;;;;6.72;1.13;;;6.90;99.90;;;;;;5035919;28;20060;-86
2023/03/25 01:06:50;;;;;;;1.40;1.00;;;6.90;99.90;;;;;;5064816;28;20457;-85
2023/03/25 01:09:19;;;;;;;1.00;0.88;;;6.90;99.90;;;;;;5052793;28;20043;-87
2023/03/25 01:11:48;;;;;;;1.00;1.00;;;7.10;99.90;;;;;;5072464;28;20041;-85
2023/03/25 01:14:28;;;;;;;2.13;1.02;;;7.20;99.90;;;;;;5072739;28;20029;-86
2023/03/25 01:16:58;;;;;;;4.90;1.40;;;7.10;99.90;;;;;;5056761;28;20043;-86
2023/03/25 01:19:30;;;;;;;1.50;1.40;;;7.20;99.90;;;;;;5072736;28;20330;-86
2023/03/25 01:21:58;;;;;;;1.38;1.08;;;7.10;99.90;;;;;;5053764;28;20609;-87
2023/03/25 01:24:25;;;;;;;10.85;2.53;;;7.10;99.90;;;;;;5072612;28;20036;-85
2023/03/25 01:26:53;;;;;;;7.68;1.10;;;7.10;99.90;;;;;;5069682;28;20058;-86
2023/03/25 01:29:21;;;;;;;2.42;1.25;;;7.10;99.90;;;;;;5071585;28;20055;-87
2023/03/25 01:31:49;;;;;;;1.48;1.23;;;7.10;99.90;;;;;;5073759;28;20047;-86
2023/03/25 01:34:17;;;;;;;1.08;1.08;;;7.00;99.90;;;;;;5055929;28;20041;-85
2023/03/25 01:36:45;;;;;;;12.25;2.17;;;7.00;99.90;;;;;;5019495;28;20033;-86
2023/03/25 01:39:17;;;;;;;3.85;1.25;;;7.30;99.90;;;;;;5052445;28;20033;-86
2023/03/25 01:41:47;;;;;;;1.15;1.15;;;7.20;99.90;;;;;;5069760;28;20043;-86
2023/03/25 01:44:23;;;;;;;7.72;1.85;;;7.20;99.90;;;;;;5053885;28;20047;-86
2023/03/25 01:46:51;;;;;;;2.50;1.05;;;7.20;99.90;;;;;;5072812;28;20039;-86
2023/03/25 01:49:32;;;;;;;2.10;1.95;;;7.20;99.90;;;;;;5037377;28;20060;-86
2023/03/25 01:52:04;;;;;;;0.90;0.90;;;7.10;99.90;;;;;;5069221;28;20041;-85
2023/03/25 01:54:32;;;;;;;5.70;1.30;;;7.20;99.90;;;;;;5051626;28;20045;-86
2023/03/25 01:57:00;;;;;;;0.90;0.90;;;7.20;99.90;;;;;;5069871;28;20360;-85
2023/03/25 01:59:28;;;;;;;1.20;1.17;;;7.30;99.90;;;;;;5068630;28;20049;-86
2023/03/25 02:02:01;;;;;;;1.40;1.23;;;7.30;99.90;;;;;;5051458;28;20028;-87
2023/03/25 02:04:42;;;;;;;0.82;0.82;;;7.20;99.90;;;;;;5068594;28;20049;-87
2023/03/25 02:07:11;;;;;;;1.35;1.20;;;7.20;99.90;;;;;;5047491;28;20049;-88
2023/03/25 02:09:39;;;;;;;1.40;0.80;;;7.30;99.90;;;;;;5068956;28;20039;-86
2023/03/25 02:12:07;;;;;;;2.05;1.10;;;7.40;99.90;;;;;;5069612;28;20054;-87
2023/03/25 02:14:37;;;;;;;1.40;1.35;;;7.50;99.90;;;;;;5042889;28;20056;-87
2023/03/25 02:17:28;;;;;;;1.45;1.35;;;7.40;99.90;;;;;;5043774;28;20060;-86
2023/03/25 02:20:14;;;;;;;1.05;1.05;;;7.40;99.90;;;;;;5020497;28;20049;-88
2023/03/25 02:23:00;;;;;;;1.08;1.05;;;7.50;99.90;;;;;;5021660;28;20041;-89
2023/03/25 02:25:54;;;;;;;2.58;1.23;;;7.50;99.90;;;;;;5016168;28;20065;-89
2023/03/25 02:28:28;;;;;;;4.68;1.42;;;7.60;99.90;;;;;;5042933;28;20045;-88
2023/03/25 02:31:33;;;;;;;2.35;1.10;;;7.80;99.90;;;;;;5025381;28;20045;-88
2023/03/25 02:34:01;;;;;;;2.30;1.02;;;7.80;99.90;;;;;;5041475;28;20041;-89
2023/03/25 02:36:51;;;;;;;1.20;1.05;;;7.80;99.90;;;;;;5039702;28;20056;-88
2023/03/25 02:39:27;;;;;;;0.82;0.82;;;7.80;99.90;;;;;;5042659;28;20041;-90
2023/03/25 02:42:06;;;;;;;15.20;1.67;;;7.90;99.90;;;;;;5026631;28;20037;-89
2023/03/25 02:44:57;;;;;;;1.88;1.77;;;8.00;99.90;;;;;;5039642;28;20049;-91
2023/03/25 02:47:32;;;;;;;2.88;1.20;;;8.00;99.90;;;;;;5015142;28;20048;-88
2023/03/25 02:50:25;;;;;;;2.78;1.52;;;8.00;99.90;;;;;;5044751;28;20053;-89
2023/03/25 02:53:03;;;;;;;0.93;0.90;;;8.00;99.90;;;;;;5044965;28;20049;-91
2023/03/25 02:55:32;;;;;;;0.70;0.70;;;8.10;99.90;;;;;;5029828;28;20057;-90
2023/03/25 02:58:03;;;;;;;1.25;0.70;;;8.00;99.90;;;;;;5024232;28;20453;-88
2023/03/25 03:00:37;;;;;;;5.65;1.55;;;8.00;99.90;;;;;;5030662;28;20049;-88
2023/03/25 03:03:06;;;;;;;5.05;1.13;;;8.00;99.90;;;;;;5045218;28;20056;-88
2023/03/25 03:05:43;;;;;;;1.17;1.08;;;7.90;99.90;;;;;;5029239;28;20041;-88
2023/03/25 03:08:40;;;;;;;2.00;1.60;;;7.80;99.90;;;;;;5045021;28;20485;-88
2023/03/25 03:11:20;;;;;;;1.67;1.08;;;7.70;99.90;;;;;;5036975;28;20052;-86
2023/03/25 03:13:56;;;;;;;0.85;0.85;;;7.60;99.90;;;;;;5038401;28;20041;-87
2023/03/25 03:17:07;;;;;;;1.02;1.02;;;7.50;99.90;;;;;;5045493;28;20064;-87
2023/03/25 03:19:45;;;;;;;1.42;1.10;;;7.40;99.90;;;;;;5024241;28;20049;-90
2023/03/25 03:22:18;;;;;;;2.05;0.80;;;7.30;99.90;;;;;;5044392;28;20045;-86
2023/03/25 03:24:55;;;;;;;0.90;0.90;;;7.50;99.90;;;;;;5013354;28;20060;-92
2023/03/25 03:27:58;;;;;;;1.52;0.95;;;7.70;99.90;;;;;;5027943;28;20060;-89
2023/03/25 03:30:57;;;;;;;6.05;0.98;;;7.80;99.90;;;;;;5010185;28;20040;-88
2023/03/25 03:33:32;;;;;;;1.42;1.30;;;7.60;99.90;;;;;;5041598;28;20056;-88
2023/03/25 03:36:06;;;;;;;0.80;0.80;;;7.70;99.90;;;;;;5033019;28;20072;-88
2023/03/25 03:38:40;;;;;;;1.17;1.08;;;7.60;99.90;;;;;;5044425;28;20045;-87
2023/03/25 03:41:12;;;;;;;2.63;2.42;;;7.50;99.90;;;;;;5045378;28;20053;-88
2023/03/25 03:43:56;;;;;;;3.40;1.40;;;7.50;99.90;;;;;;5043469;28;20041;-85
2023/03/25 03:46:37;;;;;;;0.98;0.98;;;7.50;99.90;;;;;;5043515;28;20045;-85
2023/03/25 03:49:09;;;;;;;1.93;1.03;;;7.50;99.90;;;;;;5038393;28;20080;-80
2023/03/25 03:51:55;;;;;;;5.85;2.13;;;7.50;99.90;;;;;;5045570;28;20053;-85
2023/03/25 03:54:26;;;;;;;1.48;1.38;;;7.50;99.90;;;;;;5043276;28;20076;-86
2023/03/25 03:56:57;;;;;;;3.85;0.70;;;7.40;99.90;;;;;;5045963;28;20053;-90
2023/03/25 03:59:37;;;;;;;3.10;1.25;;;7.40;99.90;;;;;;5043897;28;20048;-87
2023/03/25 04:02:37;;;;;;;1.70;0.88;;;7.40;99.90;;;;;;5044727;28;20052;-88
2023/03/25 04:05:12;;;;;;;1.30;1.15;;;7.50;99.90;;;;;;5041965;28;20372;-88
2023/03/25 04:07:44;;;;;;;1.08;1.08;;;7.40;99.90;;;;;;5044528;28;20053;-89
2023/03/25 04:10:28;;;;;;;1.60;0.88;;;7.40;99.90;;;;;;5044960;28;20045;-88
2023/03/25 04:12:59;;;;;;;3.50;1.23;;;7.40;99.90;;;;;;5042967;28;20410;-88
2023/03/25 04:15:26;;;;;;;1.27;1.27;;;7.30;99.90;;;;;;5027344;28;20057;-88
2023/03/25 04:17:54;;;;;;;0.77;0.77;;;7.30;99.90;;;;;;5011991;28;20134;-88
2023/03/25 04:20:24;;;;;;;6.03;1.00;;;7.20;99.90;;;;;;5046398;28;20063;-88
2023/03/25 04:22:52;;;;;;;0.70;0.70;;;7.20;99.90;;;;;;5044050;28;20523;-86
2023/03/25 04:25:20;;;;;;;2.05;0.90;;;7.20;99.90;;;;;;5046225;28;20064;-91
2023/03/25 04:27:48;;;;;;;1.13;1.10;;;7.10;99.90;;;;;;5031532;28;20058;-89
2023/03/25 04:30:18;;;;;;;2.95;1.30;;;7.10;99.90;;;;;;5044925;28;20056;-86
2023/03/25 04:32:46;;;;;;;3.25;1.02;;;7.00;99.90;;;;;;5043873;28;20051;-86
2023/03/25 04:35:18;;;;;;;1.85;1.05;;;7.00;99.90;;;;;;5021181;28;20045;-88
2023/03/25 04:37:52;;;;;;;4.85;1.77;;;6.90;99.90;;;;;;5036019;28;20068;-92
2023/03/25 04:40:20;;;;;;;0.88;0.88;;;7.00;99.90;;;;;;5043559;28;20064;-87
2023/03/25 04:42:52;;;;;;;1.00;0.80;;;6.90;99.90;;;;;;5044381;28;20453;-88
2023/03/25 04:45:20;;;;;;;2.47;1.55;;;6.90;99.90;;;;;;5043375;28;20049;-87
2023/03/25 04:47:52;;;;;;;1.75;1.27;;;6.70;99.90;;;;;;5026663;28;20048;-87
2023/03/25 04:50:27;;;;;;;1.42;1.10;;;6.50;99.90;;;;;;5026661;28;20057;-87
2023/03/25 04:52:59;;;;;;;1.95;1.35;;;6.40;99.90;;;;;;5043829;28;20057;-88
2023/03/25 04:55:28;;;;;;;0.93;0.93;;;6.60;99.90;;;;;;5043152;28;20065;-89
2023/03/25 04:57:56;;;;;;;2.63;1.63;;;6.70;99.90;;;;;;5037721;28;20052;-88
2023/03/25 05:00:24;;;;;;;2.97;0.90;;;7.00;99.90;;;;;;5043301;28;20068;-87
2023/03/25 05:02:53;;;;;;;4.68;1.70;;;6.80;99.90;;;;;;5006174;28;20045;-88
2023/03/25 05:05:24;;;;;;;0.90;0.90;;;6.90;99.90;;;;;;5023701;28;20049;-86
2023/03/25 05:07:54;;;;;;;1.70;0.93;;;6.80;99.90;;;;;;5043634;28;20060;-87
2023/03/25 05:10:23;;;;;;;0.70;0.70;;;6.90;99.90;;;;;;5052320;28;20422;-85
2023/03/25 05:13:01;;;;;;;5.90;2.05;;;7.00;99.90;;;;;;5025651;28;20057;-87
2023/03/25 05:15:34;;;;;;;1.35;1.25;;;7.00;99.90;;;;;;5020709;28;20045;-88
2023/03/25 05:18:01;;;;;;;2.42;1.05;;;7.00;99.90;;;;;;5043826;28;20080;-88
2023/03/25 05:20:31;;;;;;;2.60;1.45;;;6.90;99.90;;;;;;5031228;28;20045;-86
2023/03/25 05:22:59;;;;;;;1.92;1.00;;;6.90;99.90;;;;;;5009330;28;20052;-87
2023/03/25 05:25:27;;;;;;;3.38;3.17;;;6.90;99.90;;;;;;5039145;28;20391;-86
2023/03/25 05:27:55;;;;;;;3.83;1.08;;;6.90;99.90;;;;;;5041713;28;20053;-87
2023/03/25 05:30:23;;;;;;;1.55;1.42;;;6.90;99.90;;;;;;5041864;28;20068;-87
2023/03/25 05:32:52;;;;;;;0.93;0.80;;;7.00;99.90;;;;;;5026738;28;20053;-86
2023/03/25 05:35:25;;;;;;;1.33;1.13;;;6.90;99.90;;;;;;5043166;28;20052;-89
2023/03/25 05:37:54;;;;;;;4.53;1.77;;;6.80;99.90;;;;;;5044699;28;20448;-89
2023/03/25 05:40:22;;;;;;;1.00;1.00;;;6.80;99.90;;;;;;5044168;28;20429;-86
2023/03/25 05:42:53;;;;;;;2.92;1.45;;;7.00;99.90;;;;;;5009895;28;20037;-88
2023/03/25 05:45:21;;;;;;;1.25;1.13;;;7.00;99.90;;;;;;5044726;28;20053;-86
2023/03/25 05:47:49;;;;;;;7.07;1.10;;;7.10;99.90;;;;;;5043563;28;20049;-88
2023/03/25 05:50:17;;;;;;;1.60;0.65;;;7.00;99.90;;;;;;5010892;28;20059;-87
2023/03/25 05:52:48;;;;;;;0.98;0.98;;;7.00;99.90;;;;;;5043845;28;20060;-90
2023/03/25 05:55:20;;;;;;;3.70;1.85;;;7.10;99.90;;;;;;5044508;28;20060;-87
2023/03/25 05:57:49;;;;;;;2.78;1.38;;;7.10;99.90;;;;;;5038086;28;20445;-89
2023/03/25 06:00:20;;;;;;;5.45;1.17;;;7.10;99.90;;;;;;5040441;28;20057;-89
2023/03/25 06:02:51;;;;;;;1.13;1.10;;;7.20;99.90;;;;;;5042247;28;20397;-87
2023/03/25 06:05:22;;;;;;;0.93;0.93;;;7.20;99.90;;;;;;5044750;28;20757;-85
2023/03/25 06:07:54;;;;;;;3.85;1.85;;;7.30;99.90;;;;;;5043992;28;20056;-87
2023/03/25 06:10:23;;;;;;;1.95;0.88;;;7.40;99.90;;;;;;5041766;28;20056;-87
2023/03/25 06:12:51;;;;;;;1.30;1.05;;;7.50;99.90;;;;;;5026723;28;20045;-92
2023/03/25 06:15:27;;;;;;;1.35;1.25;;;7.70;99.90;;;;;;5043831;28;20053;-87
2023/03/25 06:17:56;;;;;;;1.10;1.10;;;7.80;99.90;;;;;;5042772;28;20053;-93
2023/03/25 06:20:25;;;;;;;1.02;1.00;;;8.00;99.90;;;;;;5044880;28;20273;-87
2023/03/25 06:22:53;;;;;;;0.55;0.50;;;8.10;99.90;;;;;;5043782;28;20615;-87
2023/03/25 06:25:21;;;;;;;1.80;0.73;;;8.20;99.90;;;;;;5045141;28;20049;-89
2023/03/25 06:27:49;;;;;;;0.70;0.70;;;8.30;99.90;;;;;;5044475;28;20048;-88
2023/03/25 06:30:21;;;;;;;2.05;0.90;;;8.20;99.90;;;;;;5031545;28;20045;-89
2023/03/25 06:32:51;;;;;;;1.60;1.50;;;8.30;99.90;;;;;;5048045;28;20076;-92
2023/03/25 06:35:19;;;;;;;1.27;1.23;;;8.50;99.90;;;;;;5030756;28;20508;-89
2023/03/25 06:37:52;;;;;;;2.63;1.27;;;8.50;99.90;;;;;;5046692;28;20052;-88
2023/03/25 06:40:28;;;;;;;0.90;0.90;;;8.20;99.90;;;;;;5031136;28;20053;-88
2023/03/25 06:42:56;;;;;;;0.70;0.70;;;8.40;99.90;;;;;;5029278;28;20060;-85
2023/03/25 06:45:33;;;;;;;0.70;0.70;;;8.30;99.90;;;;;;5061363;28;20049;-92
2023/03/25 06:48:17;;;;;;;0.93;0.80;;;8.50;99.90;;;;;;5046169;28;20079;-90
2023/03/25 06:50:45;;;;;;;0.70;0.70;;;8.70;99.90;;;;;;5046749;28;20432;-88
2023/03/25 06:53:12;;;;;;;1.75;0.50;;;8.50;99.90;;;;;;5045084;28;20061;-93
2023/03/25 06:55:43;;;;;;;0.55;0.55;;;8.40;99.90;;;;;;5046037;28;20049;-90
2023/03/25 06:58:11;;;;;;;0.60;0.60;;;8.10;99.90;;;;;;5028452;28;20063;-90
2023/03/25 07:00:39;;;;;;;0.70;0.70;;;8.10;99.90;;;;;;5049014;28;20056;-87
2023/03/25 07:03:07;;;;;;;0.50;0.50;;;8.00;99.90;;;;;;5047765;28;20049;-92
2023/03/25 07:05:41;;;;;;;0.60;0.60;;;7.80;99.90;;;;;;5032152;28;20292;-91
2023/03/25 07:08:09;;;;;;;0.85;0.50;;;7.70;99.90;;;;;;5051468;28;20045;-93
2023/03/25 07:10:37;;;;;;;0.65;0.65;;;7.60;99.90;;;;;;5056717;28;20056;-88
2023/03/25 07:13:04;;;;;;;0.90;0.90;;;7.60;99.90;;;;;;5039898;28;20056;-90
2023/03/25 07:15:33;;;;;;;0.63;0.63;;;7.50;99.90;;;;;;5050531;28;20044;-92
2023/03/25 07:18:00;;;;;;;0.70;0.70;;;7.40;99.90;;;;;;5049906;28;20052;-89
2023/03/25 07:20:29;;;;;;;0.55;0.55;;;7.40;99.90;;;;;;5046245;28;20064;-90
2023/03/25 07:22:56;;;;;;;0.73;0.73;;;7.30;99.90;;;;;;5046082;28;20052;-93
2023/03/25 07:25:26;;;;;;;0.93;0.93;;;7.30;99.90;;;;;;5027942;28;20049;-93
2023/03/25 07:27:54;;;;;;;1.15;1.00;;;7.30;99.90;;;;;;5045585;28;20048;-89
2023/03/25 07:30:22;;;;;;;5.35;0.70;;;7.30;99.90;;;;;;5029410;28;20060;-93
2023/03/25 07:32:50;;;;;;;0.60;0.60;;;7.30;99.90;;;;;;5046117;28;20051;-88
2023/03/25 07:35:18;;;;;;;2.40;0.70;;;7.30;99.90;;;;;;5045792;28;20052;-88
2023/03/25 07:37:46;;;;;;;0.90;0.90;;;7.30;99.90;;;;;;5045231;28;20052;-93
2023/03/25 07:40:14;;;;;;;3.50;1.10;;;7.30;99.90;;;;;;5029930;28;20057;-92
2023/03/25 07:42:43;;;;;;;0.73;0.73;;;7.30;99.90;;;;;;5051668;28;20056;-91
2023/03/25 07:45:21;;;;;;;1.00;1.00;;;7.30;99.90;;;;;;5052715;28;20041;-92
2023/03/25 07:47:51;;;;;;;1.23;0.73;;;7.30;99.90;;;;;;5049061;28;20128;-89
2023/03/25 07:50:22;;;;;;;0.70;0.70;;;7.40;99.90;;;;;;5050614;28;20033;-90
2023/03/25 07:52:54;;;;;;;0.95;0.80;;;7.40;99.90;;;;;;5051221;28;20060;-91
2023/03/25 07:55:22;;;;;;;0.60;0.60;;;7.30;99.90;;;;;;5033965;28;20055;-92
2023/03/25 07:57:49;;;;;;;4.20;0.90;;;7.20;99.90;;;;;;5038472;28;20048;-91
2023/03/25 08:00:17;;;;;;;0.98;0.98;;;7.30;99.90;;;;;;5036720;28;20084;-91
2023/03/25 08:02:45;;;;;;;0.75;0.75;;;7.30;99.90;;;;;;5035053;28;20053;-89
2023/03/25 08:05:19;;;;;;;2.80;0.80;;;7.60;99.90;;;;;;5053649;28;20049;-88
2023/03/25 08:07:49;;;;;;;4.50;1.02;;;7.80;99.90;;;;;;5052254;28;20061;-88
2023/03/25 08:10:17;;;;;;;0.77;0.77;;;7.60;99.90;;;;;;5046036;28;20366;-90
2023/03/25 08:12:44;;;;;;;0.68;0.68;;;7.60;99.90;;;;;;5033642;28;20072;-91
2023/03/25 08:15:12;;;;;;;1.05;0.98;;;7.70;99.90;;;;;;5050119;28;20053;-89
2023/03/25 08:17:40;;;;;;;0.70;0.70;;;7.50;99.90;;;;;;5033711;28;20045;-90
2023/03/25 08:20:08;;;;;;;0.63;0.63;;;7.70;99.90;;;;;;5052173;28;20065;-90
2023/03/25 08:22:36;;;;;;;0.68;0.68;;;7.70;99.90;;;;;;5049308;28;20037;-92
2023/03/25 08:25:07;;;;;;;0.68;0.68;;;7.50;99.90;;;;;;5050308;28;20052;-88
2023/03/25 08:27:35;;;;;;;0.98;0.88;;;7.60;99.90;;;;;;5049660;28;20048;-88
2023/03/25 08:30:03;;;;;;;0.93;0.93;;;8.00;99.90;;;;;;5048096;28;20049;-84
2023/03/25 08:32:31;;;;;;;0.60;0.60;;;8.70;99.90;;;;;;5032598;28;20049;-91
2023/03/25 08:35:04;;;;;;;1.13;0.90;;;8.70;99.90;;;;;;5065990;28;20041;-89
2023/03/25 08:37:34;;;;;;;1.17;0.90;;;9.50;99.90;;;;;;5073224;28;20115;-89
2023/03/25 08:40:08;;;;;;;2.30;0.80;;;10.20;99.90;;;;;;5071429;28;20345;-89
2023/03/25 08:42:38;;;;;;;0.77;0.77;;;10.00;99.90;;;;;;5069623;28;20040;-91
2023/03/25 08:45:06;;;;;;;0.57;0.57;;;10.60;99.90;;;;;;5072263;28;20029;-92
2023/03/25 08:47:34;;;;;;;2.22;0.98;;;11.00;99.90;;;;;;5036715;28;20051;-90
2023/03/25 08:50:02;;;;;;;0.73;0.73;;;10.80;99.90;;;;;;5072455;28;20053;-92
2023/03/25 08:52:30;;;;;;;1.65;0.80;;;11.20;99.90;;;;;;5072551;28;20049;-89
2023/03/25 08:54:58;;;;;;;1.45;0.93;;;11.20;99.90;;;;;;5049956;28;20067;-88
2023/03/25 08:57:26;;;;;;;0.30;0.30;;;11.10;99.90;;;;;;5065005;28;20067;-86
2023/03/25 08:59:55;;;;;;;2.50;0.90;;;11.30;99.90;;;;;;5061920;28;20049;-87
2023/03/25 09:02:25;;;;;;;0.85;0.82;;;10.50;99.90;;;;;;5060208;28;20045;-91
2023/03/25 09:04:53;;;;;;;0.50;0.50;;;10.60;99.90;;;;;;5059809;28;20048;-91
2023/03/25 09:07:22;;;;;;;0.80;0.63;;;9.80;99.90;;;;;;5052081;28;20044;-92
2023/03/25 09:09:49;;;;;;;0.63;0.63;;;9.30;99.90;;;;;;5069436;28;20059;-91
2023/03/25 09:12:19;;;;;;;0.50;0.50;;;8.90;99.90;;;;;;5066559;28;20045;-87
2023/03/25 09:14:46;;;;;;;0.47;0.47;;;8.90;99.90;;;;;;5068992;28;20333;-87
2023/03/25 09:17:14;;;;;;;0.40;0.40;;;9.00;99.90;;;;;;5070500;28;20379;-92
2023/03/25 09:19:42;;;;;;;1.00;0.80;;;8.60;99.90;;;;;;5069780;28;20028;-88
2023/03/25 09:22:10;;;;;;;1.95;0.60;;;8.30;99.90;;;;;;5069722;28;20063;-90
2023/03/25 09:24:38;;;;;;;0.50;0.50;;;8.30;99.90;;;;;;5065846;28;20049;-82
2023/03/25 09:27:06;;;;;;;0.50;0.50;;;8.20;99.90;;;;;;5044519;28;20061;-85
2023/03/25 09:29:35;;;;;;;0.50;0.50;;;8.10;99.90;;;;;;5041818;28;20064;-87
2023/03/25 09:32:03;;;;;;;0.95;0.95;;;8.00;99.90;;;;;;5026084;28;20049;-86
2023/03/25 09:34:31;;;;;;;0.40;0.40;;;8.00;99.90;;;;;;5010837;28;20456;-82
2023/03/25 09:36:58;;;;;;;0.60;0.60;;;8.00;99.90;;;;;;5044023;28;20464;-83
2023/03/25 09:39:26;;;;;;;1.23;0.98;;;8.00;99.90;;;;;;5040409;28;20052;-83
2023/03/25 09:42:06;;;;;;;2.92;1.35;;;7.90;99.90;;;;;;5024690;28;20056;-84
2023/03/25 09:44:54;;;;;;;0.60;0.50;;;8.00;99.90;;;;;;5041439;28;20402;-82
2023/03/25 09:47:24;;;;;;;0.60;0.60;;;8.40;99.90;;;;;;5054695;28;20041;-84
2023/03/25 09:49:58;;;;;;;;;;;8.90;99.90;;;;;;5044023;28;20480;-83
2023/03/25 09:52:37;;;;;;;0.60;0.60;;;9.10;99.90;;;;;;5056314;28;20259;-86
2023/03/25 09:55:13;;;;;;;0.60;0.60;;;8.90;99.90;;;;;;5025736;28;20053;-86
2023/03/25 09:57:48;;;;;;;3.55;0.77;;;9.10;99.90;;;;;;5038724;28;20049;-87
2023/03/25 10:00:23;;;;;;;0.68;0.60;;;9.20;99.90;;;;;;5041494;28;20053;-84
2023/03/25 10:03:07;;;;;;;0.60;0.60;;;9.50;99.90;;;;;;5043829;28;20041;-89
2023/03/25 10:05:38;;;;;;;0.63;0.63;;;9.40;99.90;;;;;;5046924;28;20057;-87
2023/03/25 10:08:48;;;;;;;2.05;0.55;;;9.30;99.90;;;;;;5048797;28;20091;-90
2023/03/25 10:11:42;;;;;;;1.75;1.30;;;9.50;99.90;;;;;;5046075;28;20056;-86
2023/03/25 10:14:18;;;;;;;0.98;0.90;;;9.80;99.90;;;;;;5028884;28;20045;-90
2023/03/25 10:17:05;;;;;;;0.80;0.80;;;10.20;99.90;;;;;;5047281;28;20052;-86
2023/03/25 10:19:41;;;;;;;0.70;0.70;;;9.90;99.90;;;;;;5047659;28;20475;-90
2023/03/25 10:22:37;;;;;;;0.85;0.77;;;10.00;99.90;;;;;;5047812;28;20040;-88
2023/03/25 10:25:16;;;;;;;1.52;1.25;;;10.10;99.90;;;;;;5049308;28;20052;-87
2023/03/25 10:27:46;;;;;;;0.68;0.68;;;10.20;99.90;;;;;;5018239;28;20849;-90
2023/03/25 10:30:22;;;;;;;1.42;0.80;;;10.00;99.90;;;;;;5047105;28;20413;-86
2023/03/25 10:33:03;;;;;;;1.77;1.10;;;9.80;99.90;;;;;;5046329;28;20049;-88
2023/03/25 10:35:38;;;;;;;7.68;1.35;;;10.00;99.90;;;;;;5047882;28;20048;-87
2023/03/25 10:38:23;;;;;;;0.50;0.50;;;10.10;99.90;;;;;;5047684;28;20053;-89
2023/03/25 10:41:15;;;;;;;0.70;0.70;;;10.00;99.90;;;;;;5047682;28;20060;-90
2023/03/25 10:43:44;;;;;;;3.80;1.15;;;9.80;99.90;;;;;;5038886;28;20060;-88
2023/03/25 10:46:33;;;;;;;2.25;1.05;;;10.10;99.90;;;;;;5014580;28;20045;-86
2023/03/25 10:49:05;;;;;;;4.72;1.45;;;10.20;99.90;;;;;;5042846;28;20053;-89
2023/03/25 10:51:37;;;;;;;0.65;0.65;;;10.30;99.90;;;;;;5047343;28;20056;-88
2023/03/25 10:54:08;;;;;;;2.38;1.35;;;10.30;99.90;;;;;;5028994;28;20045;-88
2023/03/25 10:56:41;;;;;;;0.60;0.60;;;10.50;99.90;;;;;;5045798;28;20067;-87
2023/03/25 10:59:29;;;;;;;2.88;0.85;;;10.60;99.90;;;;;;5043311;28;20041;-86
2023/03/25 11:01:58;;;;;;;0.70;0.70;;;10.20;99.90;;;;;;5029531;28;20049;-85
2023/03/25 11:04:36;;;;;;;2.97;0.73;;;10.60;99.90;;;;;;5047963;28;20059;-90
2023/03/25 11:07:18;;;;;;;1.13;0.95;;;10.60;99.90;;;;;;5046278;28;20084;-88
2023/03/25 11:09:45;;;;;;;;;;;10.10;99.90;;;;;;5038056;28;20056;-86
2023/03/25 11:12:18;;;;;;;2.58;0.98;;;9.60;99.90;;;;;;5030449;28;19925;-81
2023/03/25 11:14:55;;;;;;;1.23;0.65;;;9.40;99.90;;;;;;5030246;28;20045;-91
2023/03/25 11:17:26;;;;;;;0.40;0.40;;;9.60;99.90;;;;;;5041615;28;20053;-86
2023/03/25 11:19:59;;;;;;;1.58;0.85;;;9.80;99.90;;;;;;5046388;28;20044;-85
2023/03/25 11:22:29;;;;;;;1.30;0.73;;;10.20;99.90;;;;;;5025167;28;20049;-87
2023/03/25 11:25:02;;;;;;;1.30;1.08;;;10.20;99.90;;;;;;5048052;28;20057;-83
2023/03/25 11:28:07;;;;;;;2.08;0.60;;;10.20;99.90;;;;;;5029690;28;20049;-87
2023/03/25 11:30:36;;;;;;;0.60;0.60;;;10.10;99.90;;;;;;5032694;28;20045;-90
2023/03/25 11:33:13;;;;;;;2.05;0.77;;;10.00;99.90;;;;;;5032411;28;20056;-90
2023/03/25 11:35:43;;;;;;;0.75;0.75;;;10.30;99.90;;;;;;5045425;28;20041;-89
2023/03/25 11:38:33;;;;;;;0.93;0.63;;;10.00;99.90;;;;;;5044764;28;20308;-87
2023/03/25 11:41:02;;;;;;;0.60;0.60;;;9.90;99.90;;;;;;5029912;28;20055;-88
2023/03/25 11:43:36;;;;;;;0.60;0.60;;;10.20;99.90;;;;;;5047507;28;20045;-93
2023/03/25 11:46:22;;;;;;;0.88;0.88;;;10.40;99.90;;;;;;5016752;28;20045;-86
2023/03/25 11:48:51;;;;;;;0.50;0.50;;;10.70;99.90;;;;;;5046570;28;20060;-86
2023/03/25 11:51:18;;;;;;;0.50;0.50;;;10.50;99.90;;;;;;5060325;28;20048;-91
2023/03/25 11:53:53;;;;;;;0.40;0.40;;;10.40;99.90;;;;;;5045048;28;20045;-88
2023/03/25 11:56:25;;;;;;;0.82;0.82;;;10.60;99.90;;;;;;5042296;28;20049;-90
2023/03/25 11:58:59;;;;;;;0.82;0.82;;;10.50;99.90;;;;;;5041378;28;20045;-87
2023/03/25 12:01:49;;;;;;;1.70;0.85;;;10.60;99.90;;;;;;5028381;28;20052;-89
2023/03/25 12:04:23;;;;;;;1.50;0.85;;;10.50;99.90;;;;;;5042028;28;20049;-92
2023/03/25 12:07:08;;;;;;;0.40;0.40;;;10.60;99.90;;;;;;5043404;28;20045;-90
2023/03/25 12:09:36;;;;;;;0.52;0.52;;;10.80;99.90;;;;;;5028433;28;20053;-87
2023/03/25 12:12:41;;;;;;;0.40;0.40;;;10.80;99.90;;;;;;5046974;28;20053;-86
2023/03/25 12:15:38;;;;;;;0.47;0.47;;;11.00;99.90;;;;;;5043643;28;20048;-88
2023/03/25 12:18:26;;;;;;;0.55;0.55;;;10.90;99.90;;;;;;5013143;28;20044;-89
2023/03/25 12:21:16;;;;;;;0.50;0.50;;;10.70;99.90;;;;;;5046501;28;20064;-90
2023/03/25 12:24:12;;;;;;;1.45;0.70;;;10.30;99.90;;;;;;5041979;28;20069;-88
2023/03/25 12:27:06;;;;;;;3.03;0.73;;;10.30;99.90;;;;;;5043679;28;20049;-92
2023/03/25 12:29:50;;;;;;;0.60;0.60;;;10.40;99.90;;;;;;5025130;28;20475;-89
2023/03/25 12:32:53;;;;;;;0.40;0.40;;;10.60;99.90;;;;;;5044927;28;20080;-90
2023/03/25 12:35:37;;;;;;;0.70;0.60;;;10.70;99.90;;;;;;5044835;28;20040;-87
2023/03/25 12:38:37;;;;;;;0.50;0.50;;;10.50;99.90;;;;;;5044537;28;20049;-91
2023/03/25 12:41:11;;;;;;;0.75;0.63;;;10.40;99.90;;;;;;5032032;28;20087;-86
2023/03/25 12:43:57;;;;;;;0.73;0.60;;;10.20;99.90;;;;;;5042022;28;20785;-88
2023/03/25 12:46:50;;;;;;;0.50;0.50;;;10.30;99.90;;;;;;5042177;28;20051;-88
2023/03/25 12:49:54;;;;;;;0.68;0.68;;;10.20;99.90;;;;;;5042534;28;20048;-92
2023/03/25 12:52:36;;;;;;;0.70;0.70;;;10.60;99.90;;;;;;5017412;28;20045;-85
2023/03/25 12:55:30;;;;;;;0.55;0.55;;;10.50;99.90;;;;;;5045796;28;20421;-90
2023/03/25 12:58:22;;;;;;;1.75;1.13;;;10.80;99.90;;;;;;5040264;28;20448;-88
2023/03/25 13:01:05;;;;;;;0.45;0.45;;;10.90;99.90;;;;;;5029279;28;20045;-88
2023/03/25 13:04:01;;;;;;;0.70;0.70;;;10.90;99.90;;;;;;5054409;28;20053;-87
2023/03/25 13:06:33;;;;;;;0.73;0.47;;;10.70;99.90;;;;;;5042870;28;20051;-89
2023/03/25 13:09:11;;;;;;;2.33;0.70;;;10.40;99.90;;;;;;5043841;28;20063;-90
2023/03/25 13:12:10;;;;;;;0.40;0.40;;;10.20;99.90;;;;;;5039976;28;20056;-87
2023/03/25 13:14:49;;;;;;;0.40;0.40;;;10.20;99.90;;;;;;5033992;28;20049;-87
2023/03/25 13:17:33;;;;;;;0.45;0.45;;;10.20;99.90;;;;;;5042915;28;20048;-93
2023/03/25 13:20:09;;;;;;;0.50;0.50;;;10.20;99.90;;;;;;5041544;28;20045;-92
2023/03/25 13:22:43;;;;;;;0.85;0.57;;;10.20;99.90;;;;;;5045131;28;20044;-87
2023/03/25 13:25:26;;;;;;;0.60;0.60;;;10.00;99.90;;;;;;5044818;28;20049;-86
2023/03/25 13:28:00;;;;;;;0.40;0.40;;;10.00;99.90;;;;;;5042369;28;20057;-88
2023/03/25 13:30:36;;;;;;;0.55;0.55;;;10.10;99.90;;;;;;5034468;28;20382;-87
2023/03/25 13:33:14;;;;;;;0.93;0.50;;;10.00;99.90;;;;;;5043931;28;20049;-84